Time;durP1;ratioP1;P1;durP2;ratioP2;P2;SDS_P1;SDS_P2;PMS_P1;PMS_P2;Temp;Humidity;BMP_temperature;BMP_pressure;BME280_temperature;BME280_humidity;BME280_pressure;Samples;Min_cycle;Max_cycle;Signal;HPM_P1;HPM_P2
2022/09/23 00:00:40;;;;;;;19.63;8.07;;;5.20;99.90;;;;;;5028807;28;20036;-65
2022/09/23 00:03:05;;;;;;;16.17;8.23;;;5.30;99.90;;;;;;5028673;28;20029;-66
2022/09/23 00:05:32;;;;;;;15.45;7.63;;;5.30;99.90;;;;;;5029516;28;20068;-64
2022/09/23 00:07:58;;;;;;;15.35;8.10;;;5.30;99.90;;;;;;5028697;28;20038;-65
2022/09/23 00:10:26;;;;;;;16.27;8.50;;;5.30;99.90;;;;;;5028716;28;20045;-64
2022/09/23 00:12:53;;;;;;;16.50;7.63;;;5.20;99.90;;;;;;5027910;28;20036;-69
2022/09/23 00:15:19;;;;;;;15.73;8.60;;;5.20;99.90;;;;;;5027038;28;20091;-67
2022/09/23 00:17:44;;;;;;;17.30;8.25;;;5.10;99.90;;;;;;5028809;28;20462;-66
2022/09/23 00:20:10;;;;;;;17.13;8.50;;;5.10;99.90;;;;;;5027422;28;20376;-64
2022/09/23 00:22:36;;;;;;;19.08;8.60;;;5.00;99.90;;;;;;5028131;28;20021;-63
2022/09/23 00:25:04;;;;;;;20.63;8.45;;;5.00;99.90;;;;;;5026143;28;20386;-64
2022/09/23 00:27:29;;;;;;;13.35;7.47;;;5.00;99.90;;;;;;5011629;28;20378;-64
2022/09/23 00:29:55;;;;;;;18.60;8.30;;;5.00;99.90;;;;;;5025516;28;20034;-70
2022/09/23 00:32:21;;;;;;;13.38;7.53;;;5.00;99.90;;;;;;5028903;28;20053;-64
2022/09/23 00:34:47;;;;;;;13.88;7.63;;;5.00;99.90;;;;;;5027925;28;20112;-65
2022/09/23 00:37:13;;;;;;;15.55;7.78;;;5.00;99.90;;;;;;5028921;28;20330;-64
2022/09/23 00:39:39;;;;;;;18.60;8.10;;;4.90;99.90;;;;;;5028611;28;20030;-64
2022/09/23 00:42:10;;;;;;;14.45;7.80;;;4.80;99.90;;;;;;5025960;28;20075;-64
2022/09/23 00:44:41;;;;;;;15.07;8.32;;;4.80;99.90;;;;;;5022515;28;20059;-65
2022/09/23 00:47:43;;;;;;;15.63;7.97;;;4.90;99.90;;;;;;5016578;28;20033;-63
2022/09/23 00:50:14;;;;;;;15.77;7.97;;;4.90;99.90;;;;;;5025953;28;20444;-65
2022/09/23 00:52:40;;;;;;;15.05;8.00;;;4.80;99.90;;;;;;5029356;28;20032;-65
2022/09/23 00:55:10;;;;;;;16.88;7.63;;;4.70;99.90;;;;;;5027501;28;20033;-65
2022/09/23 00:57:39;;;;;;;18.58;8.10;;;4.80;99.90;;;;;;5027995;28;20088;-65
2022/09/23 01:00:06;;;;;;;15.10;8.27;;;4.90;99.90;;;;;;5025322;28;20112;-63
2022/09/23 01:02:32;;;;;;;19.70;8.82;;;4.80;99.90;;;;;;5026811;28;20055;-66
2022/09/23 01:05:00;;;;;;;16.52;8.38;;;4.80;99.90;;;;;;5026725;28;20744;-68
2022/09/23 01:07:26;;;;;;;16.52;8.68;;;4.70;99.90;;;;;;5024375;28;20053;-64
2022/09/23 01:09:52;;;;;;;15.15;7.70;;;4.60;99.90;;;;;;5028104;28;20164;-64
2022/09/23 01:12:29;;;;;;;21.08;8.55;;;4.60;99.90;;;;;;5028622;28;20022;-64
2022/09/23 01:15:15;;;;;;;18.50;8.35;;;4.60;99.90;;;;;;5025377;28;20155;-69
2022/09/23 01:18:01;;;;;;;16.83;8.38;;;4.60;99.90;;;;;;5026563;28;20493;-63
2022/09/23 01:20:32;;;;;;;16.60;8.63;;;4.60;99.90;;;;;;5026416;28;20033;-65
2022/09/23 01:23:07;;;;;;;14.60;7.38;;;4.60;99.90;;;;;;5027217;28;20176;-67
2022/09/23 01:25:58;;;;;;;15.43;8.10;;;4.70;99.90;;;;;;5029168;28;20032;-64
2022/09/23 01:28:33;;;;;;;15.98;7.72;;;4.60;99.90;;;;;;4999168;28;20045;-66
2022/09/23 01:31:09;;;;;;;16.02;8.02;;;4.50;99.90;;;;;;5027422;28;20452;-69
2022/09/23 01:33:38;;;;;;;21.45;7.57;;;4.50;99.90;;;;;;5030727;28;20051;-65
2022/09/23 01:36:10;;;;;;;15.73;7.88;;;4.50;99.90;;;;;;5031326;28;20111;-64
2022/09/23 01:38:57;;;;;;;14.52;7.35;;;4.40;99.90;;;;;;5020727;28;20029;-67
2022/09/23 01:42:05;;;;;;;15.55;8.15;;;4.40;99.90;;;;;;5031173;28;20124;-67
2022/09/23 01:44:37;;;;;;;16.63;8.38;;;4.30;99.90;;;;;;5028324;28;20506;-64
2022/09/23 01:47:18;;;;;;;14.35;7.55;;;4.20;99.90;;;;;;5030329;28;20207;-65
2022/09/23 01:49:52;;;;;;;13.45;7.55;;;4.20;99.90;;;;;;5030044;28;20037;-65
2022/09/23 01:52:37;;;;;;;16.58;7.07;;;4.10;99.90;;;;;;5031120;28;20083;-64
2022/09/23 01:55:21;;;;;;;18.80;7.22;;;3.70;99.90;;;;;;5030160;28;20048;-66
2022/09/23 01:57:56;;;;;;;15.60;7.85;;;3.70;99.90;;;;;;5032066;28;20029;-66
2022/09/23 02:00:23;;;;;;;13.98;7.55;;;3.80;99.90;;;;;;5026862;28;20025;-65
2022/09/23 02:03:00;;;;;;;14.35;6.57;;;3.80;99.90;;;;;;5028722;28;20029;-65
2022/09/23 02:05:46;;;;;;;15.32;7.97;;;3.70;99.90;;;;;;5029424;28;20026;-64
2022/09/23 02:08:40;;;;;;;15.10;7.18;;;3.80;99.90;;;;;;5028507;28;20597;-66
2022/09/23 02:11:09;;;;;;;14.57;7.57;;;3.70;99.90;;;;;;5023436;28;20038;-65
2022/09/23 02:13:49;;;;;;;14.73;7.82;;;3.70;99.90;;;;;;5029243;28;20097;-67
2022/09/23 02:16:25;;;;;;;13.10;6.97;;;3.60;99.90;;;;;;5025266;28;20036;-65
2022/09/23 02:19:02;;;;;;;18.15;8.23;;;3.60;99.90;;;;;;5026673;28;20037;-68
2022/09/23 02:21:33;;;;;;;16.67;8.50;;;3.60;99.90;;;;;;5023873;28;20475;-66
2022/09/23 02:24:11;;;;;;;16.17;8.43;;;3.70;99.90;;;;;;5044025;28;20029;-65
2022/09/23 02:26:51;;;;;;;13.73;7.28;;;3.70;99.90;;;;;;5028631;28;20131;-63
2022/09/23 02:29:35;;;;;;;17.63;8.40;;;3.70;99.90;;;;;;5027355;28;20025;-64
2022/09/23 02:32:11;;;;;;;15.25;7.68;;;3.70;99.90;;;;;;5027765;28;20053;-70
2022/09/23 02:34:50;;;;;;;14.15;7.82;;;3.70;99.90;;;;;;5029362;28;20025;-64
2022/09/23 02:37:30;;;;;;;15.35;8.02;;;3.60;99.90;;;;;;5018023;28;20034;-65
2022/09/23 02:40:01;;;;;;;15.30;7.78;;;3.70;99.90;;;;;;5025095;28;20079;-63
2022/09/23 02:42:54;;;;;;;14.77;7.70;;;3.50;99.90;;;;;;5030238;28;20026;-66
2022/09/23 02:45:20;;;;;;;15.05;7.30;;;3.50;99.90;;;;;;5028848;28;20084;-65
2022/09/23 02:47:52;;;;;;;12.57;6.93;;;3.50;99.90;;;;;;5030081;28;20017;-64
2022/09/23 02:50:18;;;;;;;16.50;8.05;;;3.40;99.90;;;;;;5028824;28;20076;-65
2022/09/23 02:52:45;;;;;;;16.02;7.50;;;3.40;99.90;;;;;;5029034;28;20482;-66
2022/09/23 02:55:15;;;;;;;15.50;7.18;;;3.20;99.90;;;;;;5021753;28;20117;-63
2022/09/23 02:57:41;;;;;;;13.93;7.13;;;3.10;99.90;;;;;;5028203;28;20096;-64
2022/09/23 03:00:07;;;;;;;15.07;7.57;;;3.10;99.90;;;;;;5028673;28;20112;-66
2022/09/23 03:03:00;;;;;;;14.35;7.57;;;3.10;99.90;;;;;;5029888;28;20037;-65
2022/09/23 03:05:33;;;;;;;14.38;7.80;;;3.10;99.90;;;;;;5029887;28;20026;-64
2022/09/23 03:08:24;;;;;;;16.98;7.57;;;3.10;99.90;;;;;;5031111;28;20112;-65
2022/09/23 03:11:12;;;;;;;14.93;7.25;;;3.20;99.90;;;;;;5030937;28;20045;-64
2022/09/23 03:13:53;;;;;;;14.77;6.97;;;3.20;99.90;;;;;;5030642;28;20064;-63
2022/09/23 03:16:38;;;;;;;14.52;7.70;;;3.30;99.90;;;;;;5019951;28;20036;-65
2022/09/23 03:19:03;;;;;;;15.65;8.20;;;3.30;99.90;;;;;;5024633;28;20445;-70
2022/09/23 03:21:56;;;;;;;16.25;7.72;;;3.30;99.90;;;;;;5028987;28;20029;-64
2022/09/23 03:24:23;;;;;;;17.63;8.05;;;3.30;99.90;;;;;;5009809;28;20077;-65
2022/09/23 03:26:50;;;;;;;16.23;8.25;;;3.30;99.90;;;;;;5029416;28;20032;-64
2022/09/23 03:29:19;;;;;;;18.08;8.88;;;3.20;99.90;;;;;;5030342;28;20025;-65
2022/09/23 03:31:44;;;;;;;17.73;8.90;;;3.20;99.90;;;;;;5029381;28;20544;-63
2022/09/23 03:34:32;;;;;;;17.85;7.50;;;3.30;99.90;;;;;;5030246;28;20025;-61
2022/09/23 03:37:05;;;;;;;15.70;8.07;;;3.30;99.90;;;;;;5030045;28;20037;-65
2022/09/23 03:39:30;;;;;;;17.58;8.23;;;3.30;99.90;;;;;;5030649;28;20083;-62
2022/09/23 03:42:00;;;;;;;15.60;7.63;;;3.20;99.90;;;;;;5030144;28;20033;-65
2022/09/23 03:44:27;;;;;;;15.57;7.38;;;3.10;99.90;;;;;;5030072;28;20098;-65
2022/09/23 03:46:57;;;;;;;17.00;7.95;;;3.10;99.90;;;;;;5028893;28;20038;-64
2022/09/23 03:49:26;;;;;;;15.38;8.40;;;3.20;99.90;;;;;;5028517;28;20115;-67
2022/09/23 03:51:52;;;;;;;14.02;7.35;;;3.20;99.90;;;;;;5025819;28;20029;-64
2022/09/23 03:54:19;;;;;;;15.30;7.72;;;3.10;99.90;;;;;;5027662;28;20033;-66
2022/09/23 03:56:48;;;;;;;13.70;7.43;;;3.00;99.90;;;;;;5028954;28;20025;-65
2022/09/23 03:59:14;;;;;;;15.48;7.35;;;3.10;99.90;;;;;;5029092;28;20041;-65
2022/09/23 04:01:41;;;;;;;15.18;8.52;;;3.00;99.90;;;;;;5029893;28;20044;-64
2022/09/23 04:04:08;;;;;;;14.55;8.52;;;3.00;99.90;;;;;;5027409;28;20080;-69
2022/09/23 04:06:34;;;;;;;15.38;7.20;;;2.90;99.90;;;;;;5028626;28;20108;-65
2022/09/23 04:09:03;;;;;;;12.98;7.60;;;2.90;99.90;;;;;;5028341;28;20040;-64
2022/09/23 04:11:28;;;;;;;13.60;7.05;;;2.90;99.90;;;;;;5028582;28;20034;-65
2022/09/23 04:13:55;;;;;;;14.50;7.45;;;2.90;99.90;;;;;;5030620;28;20075;-65
2022/09/23 04:16:20;;;;;;;17.33;7.82;;;2.90;99.90;;;;;;5028406;28;20025;-64
2022/09/23 04:18:47;;;;;;;14.68;7.63;;;3.00;99.90;;;;;;5028663;28;20458;-65
2022/09/23 04:21:12;;;;;;;13.73;8.00;;;3.00;99.90;;;;;;5020750;28;20034;-64
2022/09/23 04:23:38;;;;;;;14.25;7.20;;;3.00;99.90;;;;;;5024277;28;20030;-66
2022/09/23 04:26:04;;;;;;;14.82;7.55;;;3.00;99.90;;;;;;5036934;28;20397;-64
2022/09/23 04:28:30;;;;;;;14.85;7.97;;;3.10;99.90;;;;;;5029400;28;20244;-64
2022/09/23 04:30:56;;;;;;;13.95;7.03;;;3.10;99.90;;;;;;5029587;28;20099;-65
2022/09/23 04:33:23;;;;;;;15.23;7.18;;;3.00;99.90;;;;;;5028639;28;20061;-65
2022/09/23 04:35:52;;;;;;;13.38;7.22;;;3.10;99.90;;;;;;5028913;28;20359;-65
2022/09/23 04:38:18;;;;;;;15.50;7.75;;;3.00;99.90;;;;;;5026551;28;20098;-65
2022/09/23 04:40:43;;;;;;;16.35;7.18;;;2.90;99.90;;;;;;5029900;28;20113;-64
2022/09/23 04:43:09;;;;;;;16.55;7.35;;;2.90;99.90;;;;;;5029662;28;20112;-69
2022/09/23 04:45:35;;;;;;;14.90;7.45;;;2.80;99.90;;;;;;5029445;28;20033;-65
2022/09/23 04:48:02;;;;;;;12.68;7.15;;;2.80;99.90;;;;;;5029800;28;20466;-64
2022/09/23 04:50:28;;;;;;;16.02;7.50;;;2.90;99.90;;;;;;5026582;28;20041;-66
2022/09/23 04:52:54;;;;;;;16.38;7.72;;;2.90;99.90;;;;;;5026241;28;20033;-65
2022/09/23 04:55:20;;;;;;;16.13;7.93;;;2.90;99.90;;;;;;5028763;28;20022;-64
2022/09/23 04:57:46;;;;;;;16.98;7.78;;;2.90;99.90;;;;;;5028867;28;20490;-64
2022/09/23 05:00:14;;;;;;;17.63;7.72;;;3.00;99.90;;;;;;5020336;28;20029;-69
2022/09/23 05:02:47;;;;;;;16.75;7.82;;;3.00;99.90;;;;;;5029257;28;20055;-64
2022/09/23 05:05:17;;;;;;;14.95;7.57;;;3.00;99.90;;;;;;5028241;28;20025;-69
2022/09/23 05:07:43;;;;;;;16.15;7.68;;;3.00;99.90;;;;;;5027136;28;20132;-65
2022/09/23 05:10:09;;;;;;;15.60;8.10;;;3.00;99.90;;;;;;5027505;28;20110;-64
2022/09/23 05:12:34;;;;;;;14.60;7.65;;;3.00;99.90;;;;;;5028440;28;20026;-66
2022/09/23 05:15:01;;;;;;;15.73;7.30;;;2.90;99.90;;;;;;5026468;28;20424;-64
2022/09/23 05:17:27;;;;;;;14.90;7.40;;;2.90;99.90;;;;;;5028536;28;20025;-63
2022/09/23 05:19:53;;;;;;;16.13;7.70;;;2.80;99.90;;;;;;5027126;28;20708;-65
2022/09/23 05:22:18;;;;;;;17.35;7.80;;;2.90;99.90;;;;;;5026338;28;20025;-65
2022/09/23 05:24:44;;;;;;;13.23;8.10;;;2.90;99.90;;;;;;5028371;28;20489;-64
2022/09/23 05:27:10;;;;;;;17.30;7.78;;;3.00;99.90;;;;;;5027119;28;20029;-70
2022/09/23 05:29:37;;;;;;;18.08;8.20;;;3.00;99.90;;;;;;5025076;28;20037;-65
2022/09/23 05:32:03;;;;;;;16.35;7.35;;;2.90;99.90;;;;;;5025503;28;20065;-65
2022/09/23 05:34:29;;;;;;;18.42;8.38;;;3.00;99.90;;;;;;5024855;28;20044;-64
2022/09/23 05:36:54;;;;;;;16.05;8.30;;;3.10;99.90;;;;;;5026221;28;20489;-65
2022/09/23 05:39:20;;;;;;;16.08;7.57;;;3.00;99.90;;;;;;5025976;28;20104;-65
2022/09/23 05:41:45;;;;;;;19.23;8.20;;;2.90;99.90;;;;;;5027609;28;20140;-65
2022/09/23 05:44:11;;;;;;;15.90;8.65;;;3.00;99.90;;;;;;5027614;28;20047;-70
2022/09/23 05:46:37;;;;;;;17.10;7.97;;;3.10;99.90;;;;;;5028362;28;20104;-66
2022/09/23 05:49:04;;;;;;;16.48;8.07;;;3.30;99.90;;;;;;5029179;28;20776;-65
2022/09/23 05:51:31;;;;;;;16.02;8.77;;;3.40;99.90;;;;;;5027137;28;20038;-65
2022/09/23 05:53:57;;;;;;;12.40;7.30;;;3.40;99.90;;;;;;5029004;28;20068;-65
2022/09/23 05:56:24;;;;;;;13.88;7.05;;;3.40;99.90;;;;;;5028245;28;20817;-65
2022/09/23 05:58:51;;;;;;;14.88;7.57;;;3.40;99.90;;;;;;5029391;28;20033;-64
2022/09/23 06:01:20;;;;;;;15.63;7.40;;;3.50;99.90;;;;;;5027843;28;20504;-65
2022/09/23 06:03:53;;;;;;;13.85;6.95;;;3.50;99.90;;;;;;5028489;28;20033;-65
2022/09/23 06:06:24;;;;;;;14.57;7.40;;;3.40;99.90;;;;;;5021807;28;20033;-64
2022/09/23 06:08:50;;;;;;;14.23;7.78;;;3.50;99.90;;;;;;5029067;28;20129;-64
2022/09/23 06:11:16;;;;;;;12.23;7.07;;;3.60;99.90;;;;;;5028093;28;20120;-70
2022/09/23 06:13:42;;;;;;;14.73;7.78;;;3.60;99.90;;;;;;5028894;28;20029;-65
2022/09/23 06:16:12;;;;;;;20.10;8.27;;;3.70;99.90;;;;;;5031053;28;20466;-65
2022/09/23 06:18:43;;;;;;;13.77;7.55;;;3.80;99.90;;;;;;5031680;28;20047;-65
2022/09/23 06:21:14;;;;;;;15.38;7.45;;;4.00;99.90;;;;;;5031426;28;20045;-65
2022/09/23 06:23:40;;;;;;;13.90;7.38;;;4.10;99.90;;;;;;5030066;28;20032;-64
2022/09/23 06:26:08;;;;;;;14.07;7.70;;;4.10;99.90;;;;;;5032325;28;20033;-64
2022/09/23 06:28:36;;;;;;;17.13;8.10;;;4.20;99.90;;;;;;5030256;28;20592;-65
2022/09/23 06:31:05;;;;;;;15.60;7.40;;;4.40;99.90;;;;;;5032222;28;20145;-64
2022/09/23 06:33:31;;;;;;;13.38;7.03;;;4.50;99.90;;;;;;5026963;28;20140;-64
2022/09/23 06:35:58;;;;;;;17.10;7.75;;;4.60;99.90;;;;;;5031788;28;20129;-65
2022/09/23 06:38:25;;;;;;;15.55;7.95;;;4.70;99.90;;;;;;5031008;28;20038;-65
2022/09/23 06:40:53;;;;;;;16.45;8.18;;;4.80;99.90;;;;;;5032120;28;20140;-64
2022/09/23 06:43:20;;;;;;;16.10;8.75;;;5.00;99.90;;;;;;5029234;28;20029;-70
2022/09/23 06:45:45;;;;;;;12.70;7.78;;;5.10;99.90;;;;;;5030007;28;20026;-64
2022/09/23 06:48:11;;;;;;;14.48;8.05;;;5.20;99.90;;;;;;5031984;28;20125;-65
2022/09/23 06:50:37;;;;;;;17.92;8.30;;;5.30;99.90;;;;;;5029254;28;20718;-66
2022/09/23 06:53:03;;;;;;;14.82;8.02;;;5.30;99.90;;;;;;5031730;28;20034;-66
2022/09/23 06:55:29;;;;;;;16.48;8.25;;;5.50;99.90;;;;;;5030910;28;20061;-64
2022/09/23 06:57:57;;;;;;;18.73;8.75;;;5.70;99.90;;;;;;5031763;28;20018;-65
2022/09/23 07:00:25;;;;;;;14.93;8.27;;;5.80;99.90;;;;;;5030694;28;20038;-66
2022/09/23 07:02:50;;;;;;;17.90;8.15;;;6.10;99.90;;;;;;5031670;28;20069;-65
2022/09/23 07:05:16;;;;;;;18.20;7.90;;;6.20;99.90;;;;;;5029154;28;20536;-70
2022/09/23 07:07:43;;;;;;;15.25;8.20;;;6.40;99.90;;;;;;5031154;28;20072;-66
2022/09/23 07:10:10;;;;;;;14.40;8.05;;;6.50;99.90;;;;;;5031330;28;20044;-64
2022/09/23 07:12:36;;;;;;;14.15;8.00;;;6.60;99.90;;;;;;5030633;28;20036;-66
2022/09/23 07:15:03;;;;;;;14.30;7.50;;;6.70;99.90;;;;;;5031445;28;20061;-65
2022/09/23 07:17:29;;;;;;;16.98;8.50;;;6.80;99.90;;;;;;5028459;28;20478;-65
2022/09/23 07:19:56;;;;;;;12.90;7.60;;;6.90;99.90;;;;;;5031243;28;20029;-64
2022/09/23 07:22:23;;;;;;;15.65;7.80;;;7.10;99.90;;;;;;5029932;28;20121;-65
2022/09/23 07:24:49;;;;;;;14.60;8.40;;;7.30;99.90;;;;;;5031116;28;20486;-64
2022/09/23 07:27:16;;;;;;;14.32;8.18;;;7.50;99.90;;;;;;5029970;28;20517;-65
2022/09/23 07:29:46;;;;;;;12.75;8.02;;;7.60;99.90;;;;;;5030217;28;20141;-63
2022/09/23 07:32:12;;;;;;;16.02;8.65;;;7.90;99.90;;;;;;5026633;28;20061;-67
2022/09/23 07:34:38;;;;;;;17.05;9.13;;;8.30;99.90;;;;;;5023279;28;20258;-65
2022/09/23 07:37:04;;;;;;;15.73;8.23;;;8.60;99.90;;;;;;5027426;28;20494;-65
2022/09/23 07:39:29;;;;;;;14.73;8.23;;;8.90;99.90;;;;;;5029244;28;20104;-63
2022/09/23 07:41:55;;;;;;;15.25;8.60;;;9.10;99.90;;;;;;5028107;28;20061;-64
2022/09/23 07:44:21;;;;;;;12.57;7.43;;;9.40;99.90;;;;;;5029976;28;20030;-70
2022/09/23 07:46:51;;;;;;;12.23;6.88;;;9.70;99.90;;;;;;5030743;28;20029;-67
2022/09/23 07:49:16;;;;;;;11.38;6.55;;;10.00;99.90;;;;;;5029301;28;20032;-65
2022/09/23 07:51:45;;;;;;;10.65;6.50;;;10.30;99.90;;;;;;5028449;28;20025;-67
2022/09/23 07:54:13;;;;;;;11.98;5.85;;;10.60;99.90;;;;;;5029315;28;20530;-65
2022/09/23 07:56:40;;;;;;;8.15;5.43;;;10.90;99.90;;;;;;5029803;28;20085;-64
2022/09/23 07:59:08;;;;;;;15.70;5.93;;;11.20;99.90;;;;;;5030447;28;20035;-65
2022/09/23 08:01:40;;;;;;;9.98;5.28;;;11.50;99.90;;;;;;5029794;28;20037;-64
2022/09/23 08:04:24;;;;;;;8.70;5.22;;;11.80;99.90;;;;;;5030535;28;20028;-66
2022/09/23 08:06:55;;;;;;;8.20;4.93;;;12.00;99.90;;;;;;5029251;28;20028;-65
2022/09/23 08:09:24;;;;;;;7.22;4.63;;;12.20;99.90;;;;;;5029626;28;20052;-70
2022/09/23 08:11:50;;;;;;;9.65;4.95;;;12.50;99.90;;;;;;5030362;28;20532;-65
2022/09/23 08:14:17;;;;;;;7.30;4.55;;;12.60;99.90;;;;;;5029980;28;20097;-65
2022/09/23 08:16:45;;;;;;;7.30;4.50;;;12.80;99.90;;;;;;5029436;28;20022;-65
2022/09/23 08:19:12;;;;;;;7.60;4.60;;;12.90;99.90;;;;;;5030142;28;20104;-65
2022/09/23 08:21:38;;;;;;;7.13;4.25;;;13.10;99.90;;;;;;5027279;28;20025;-66
2022/09/23 08:24:11;;;;;;;7.57;4.45;;;13.20;99.90;;;;;;5030013;28;20037;-65
2022/09/23 08:26:37;;;;;;;7.45;3.72;;;13.30;99.90;;;;;;5029660;28;20413;-67
2022/09/23 08:29:04;;;;;;;7.00;3.78;;;13.40;99.90;;;;;;5029967;28;20033;-64
2022/09/23 08:31:29;;;;;;;7.47;4.22;;;13.50;99.90;;;;;;5028527;28;20048;-64
2022/09/23 08:33:58;;;;;;;8.75;4.68;;;13.60;99.90;;;;;;5030036;28;20033;-65
2022/09/23 08:36:25;;;;;;;6.30;3.33;;;13.70;99.90;;;;;;5029251;28;20032;-71
2022/09/23 08:38:51;;;;;;;5.80;3.35;;;13.90;99.90;;;;;;5028324;28;20490;-65
2022/09/23 08:41:38;;;;;;;6.88;3.72;;;14.10;99.90;;;;;;5029794;28;20041;-66
2022/09/23 08:44:18;;;;;;;8.68;3.65;;;14.10;99.90;;;;;;5029816;28;20033;-64
2022/09/23 08:46:58;;;;;;;7.60;3.50;;;14.40;99.90;;;;;;5027979;28;20021;-66
2022/09/23 08:49:35;;;;;;;6.43;2.72;;;14.60;99.90;;;;;;5029409;28;20275;-69
2022/09/23 08:52:15;;;;;;;4.47;3.00;;;14.80;99.90;;;;;;5029097;28;20455;-63
2022/09/23 08:54:41;;;;;;;5.25;3.03;;;15.00;99.90;;;;;;5027969;28;20036;-64
2022/09/23 08:57:18;;;;;;;7.15;3.83;;;15.20;99.90;;;;;;5029552;28;20033;-65
2022/09/23 08:59:44;;;;;;;5.50;3.55;;;15.30;99.90;;;;;;5028733;28;20036;-64
2022/09/23 09:02:18;;;;;;;5.38;3.20;;;15.40;99.90;;;;;;5029520;28;20029;-65
2022/09/23 09:04:48;;;;;;;7.60;2.92;;;15.40;99.90;;;;;;5028821;28;20647;-66
2022/09/23 09:07:19;;;;;;;6.50;2.97;;;15.30;99.90;;;;;;5029535;28;20044;-65
2022/09/23 09:09:50;;;;;;;4.18;2.53;;;15.30;99.90;;;;;;5027512;28;20037;-66
2022/09/23 09:12:17;;;;;;;;;;;15.30;99.90;;;;;;5029986;28;20036;-66
2022/09/23 09:14:59;;;;;;;3.55;2.60;;;15.40;99.90;;;;;;5026741;28;19912;-65
2022/09/23 09:17:50;;;;;;;8.60;2.70;;;15.50;99.90;;;;;;5026408;28;20025;-68
2022/09/23 09:20:34;;;;;;;6.60;2.75;;;15.50;99.90;;;;;;5028837;28;20037;-66
2022/09/23 09:23:20;;;;;;;4.03;2.50;;;15.40;99.90;;;;;;5029332;28;20113;-64
2022/09/23 09:25:52;;;;;;;4.10;2.58;;;15.60;99.90;;;;;;5028562;28;20632;-65
2022/09/23 09:28:34;;;;;;;6.85;3.10;;;15.70;99.90;;;;;;5029498;28;20041;-65
2022/09/23 09:31:20;;;;;;;3.60;2.53;;;15.90;99.90;;;;;;5028004;28;20115;-64
2022/09/23 09:34:02;;;;;;;5.40;2.20;;;16.10;99.90;;;;;;5028017;28;20643;-65
2022/09/23 09:36:38;;;;;;;4.45;2.50;;;16.20;99.90;;;;;;5028835;28;20028;-68
2022/09/23 09:39:06;;;;;;;3.28;2.30;;;16.40;99.90;;;;;;5029527;28;20029;-64
2022/09/23 09:41:32;;;;;;;3.72;2.10;;;16.30;99.90;;;;;;5027048;28;20026;-66
2022/09/23 09:44:08;;;;;;;5.45;2.08;;;16.30;99.90;;;;;;5028097;28;20044;-66
2022/09/23 09:47:07;;;;;;;2.97;2.17;;;16.40;99.90;;;;;;5028371;28;20095;-64
2022/09/23 09:49:51;;;;;;;4.60;2.40;;;16.50;99.90;;;;;;5028287;28;20037;-67
2022/09/23 09:52:22;;;;;;;3.58;2.00;;;16.60;99.90;;;;;;5032736;28;20401;-67
2022/09/23 09:54:51;;;;;;;4.30;2.50;;;16.80;99.90;;;;;;5032163;28;20021;-66
2022/09/23 09:57:26;;;;;;;4.78;2.40;;;16.80;99.90;;;;;;5032846;28;20072;-67
2022/09/23 09:59:52;;;;;;;3.88;2.20;;;17.00;99.90;;;;;;5031381;28;20548;-67
2022/09/23 10:02:29;;;;;;;6.63;2.40;;;16.90;99.90;;;;;;5031635;28;20037;-65
2022/09/23 10:05:01;;;;;;;4.65;2.10;;;17.00;99.90;;;;;;5032783;28;20029;-66
2022/09/23 10:07:32;;;;;;;3.88;2.28;;;17.10;99.90;;;;;;5032635;28;20033;-69
2022/09/23 10:10:09;;;;;;;5.07;2.08;;;17.20;99.90;;;;;;5032539;28;20029;-65
2022/09/23 10:12:45;;;;;;;5.68;2.50;;;17.30;99.90;;;;;;5031340;28;20094;-65
2022/09/23 10:15:27;;;;;;;5.18;2.30;;;17.20;99.90;;;;;;5031753;28;20390;-64
2022/09/23 10:17:53;;;;;;;6.40;2.42;;;17.10;99.90;;;;;;5031795;28;20037;-68
2022/09/23 10:20:19;;;;;;;8.70;2.35;;;17.10;99.90;;;;;;5032424;28;20112;-68
2022/09/23 10:22:45;;;;;;;4.63;2.08;;;17.30;99.90;;;;;;5031445;28;20160;-65
2022/09/23 10:25:25;;;;;;;5.60;2.72;;;17.50;99.90;;;;;;5032415;28;20022;-66
2022/09/23 10:27:51;;;;;;;3.58;2.28;;;17.80;99.90;;;;;;5030896;28;20607;-64
2022/09/23 10:30:26;;;;;;;8.45;2.47;;;17.80;99.90;;;;;;5031112;28;20053;-65
2022/09/23 10:32:55;;;;;;;2.88;2.10;;;18.00;99.90;;;;;;5031411;28;20057;-66
2022/09/23 10:35:23;;;;;;;5.78;2.28;;;17.80;99.30;;;;;;5032201;28;20056;-64
2022/09/23 10:37:53;;;;;;;3.08;2.05;;;17.80;99.90;;;;;;5030295;28;20110;-65
2022/09/23 10:46:38;;;;;;;5.00;1.90;;;18.20;99.80;;;;;;5031778;28;20041;-72
2022/09/23 10:49:34;;;;;;;3.67;2.30;;;18.30;99.90;;;;;;5031959;28;20046;-65
2022/09/23 10:52:00;;;;;;;3.53;1.90;;;17.80;96.30;;;;;;5031703;28;20479;-66
2022/09/23 10:55:15;;;;;;;3.03;1.90;;;17.60;98.00;;;;;;5031087;28;20056;-68
2022/09/23 10:57:49;;;;;;;3.72;2.28;;;17.60;97.80;;;;;;5031027;28;20029;-65
2022/09/23 11:00:23;;;;;;;7.78;2.50;;;17.80;98.40;;;;;;5031515;28;20083;-65
2022/09/23 11:03:26;;;;;;;8.50;2.72;;;17.70;98.60;;;;;;5030678;28;20033;-66
2022/09/23 11:05:59;;;;;;;6.57;2.63;;;17.60;99.00;;;;;;5029568;28;20082;-67
2022/09/23 11:08:53;;;;;;;7.10;2.20;;;17.80;98.90;;;;;;5030679;28;20024;-65
2022/09/23 11:11:37;;;;;;;5.85;2.25;;;18.20;98.00;;;;;;5031187;28;20044;-68
2022/09/23 11:14:25;;;;;;;7.78;2.45;;;18.10;96.30;;;;;;5031434;28;20052;-67
2022/09/23 11:17:20;;;;;;;3.97;2.20;;;18.30;98.00;;;;;;5030588;28;20679;-64
2022/09/23 11:20:04;;;;;;;8.90;2.60;;;18.50;98.40;;;;;;5029303;28;20038;-67
2022/09/23 11:22:54;;;;;;;6.07;2.70;;;18.70;99.10;;;;;;5031327;28;20036;-65
2022/09/23 11:25:54;;;;;;;5.32;2.83;;;18.60;99.90;;;;;;5010129;28;20084;-65
2022/09/23 11:28:54;;;;;;;9.98;3.22;;;18.70;99.50;;;;;;5011827;28;20018;-65
2022/09/23 11:31:55;;;;;;;5.68;3.13;;;18.60;99.90;;;;;;5011085;28;20045;-66
2022/09/23 11:34:33;;;;;;;5.25;3.10;;;18.80;97.10;;;;;;5011201;28;20057;-65
2022/09/23 11:37:02;;;;;;;7.63;3.65;;;19.10;95.40;;;;;;5011220;28;20034;-66
2022/09/23 11:39:52;;;;;;;6.95;2.92;;;19.40;98.90;;;;;;5026610;28;20037;-67
2022/09/23 11:42:25;;;;;;;9.15;2.67;;;19.90;95.90;;;;;;5015347;28;20049;-66
2022/09/23 11:45:00;;;;;;;5.85;2.83;;;20.10;95.10;;;;;;5030158;28;20021;-65
2022/09/23 11:47:33;;;;;;;7.70;3.20;;;19.80;96.00;;;;;;5030923;28;20420;-65
2022/09/23 11:50:08;;;;;;;7.50;2.92;;;19.60;93.70;;;;;;5030138;28;20041;-65
2022/09/23 11:52:44;;;;;;;6.55;3.10;;;19.60;93.40;;;;;;5030708;28;20042;-71
2022/09/23 11:55:26;;;;;;;4.97;2.95;;;19.90;94.60;;;;;;5030167;28;20057;-65
2022/09/23 11:57:58;;;;;;;4.22;2.70;;;20.20;95.50;;;;;;5029957;28;20095;-65
2022/09/23 12:00:29;;;;;;;4.55;2.92;;;20.30;95.20;;;;;;5030394;28;20029;-65
2022/09/23 12:03:16;;;;;;;7.40;3.35;;;20.20;92.30;;;;;;5029837;28;20116;-66
2022/09/23 12:05:50;;;;;;;4.07;2.60;;;20.00;96.70;;;;;;5029832;28;20041;-66
2022/09/23 12:08:29;;;;;;;5.18;3.28;;;20.20;94.50;;;;;;5029524;28;20051;-64
2022/09/23 12:11:19;;;;;;;4.75;2.90;;;20.10;95.70;;;;;;5029252;28;20623;-65
2022/09/23 12:14:08;;;;;;;5.90;3.50;;;20.30;96.00;;;;;;5028709;28;20025;-64
2022/09/23 12:17:11;;;;;;;6.85;3.33;;;20.50;94.50;;;;;;5030421;28;20458;-66
2022/09/23 12:19:55;;;;;;;6.45;3.17;;;20.20;93.50;;;;;;5029576;28;20103;-71
2022/09/23 12:22:25;;;;;;;6.43;3.30;;;19.90;94.80;;;;;;5029568;28;20076;-65
2022/09/23 12:25:28;;;;;;;6.55;3.30;;;19.70;96.00;;;;;;5029430;28;20030;-64
2022/09/23 12:27:59;;;;;;;7.13;3.45;;;19.90;96.90;;;;;;5029289;28;20517;-66
2022/09/23 12:30:29;;;;;;;6.18;3.40;;;20.40;93.60;;;;;;5029812;28;20044;-65
2022/09/23 12:33:25;;;;;;;5.90;4.13;;;20.30;96.20;;;;;;5029253;28;20615;-66
2022/09/23 12:35:53;;;;;;;7.65;3.80;;;20.00;93.10;;;;;;5029219;28;20037;-66
2022/09/23 12:38:31;;;;;;;5.68;3.53;;;19.60;96.30;;;;;;5028940;28;20033;-65
2022/09/23 12:40:58;;;;;;;11.38;3.67;;;19.40;97.60;;;;;;5029268;28;20634;-66
2022/09/23 12:43:34;;;;;;;5.30;3.03;;;19.50;98.20;;;;;;5029852;28;20053;-65
2022/09/23 12:46:26;;;;;;;9.27;3.45;;;19.80;97.10;;;;;;5028987;28;20029;-64
2022/09/23 12:48:58;;;;;;;6.65;3.10;;;19.40;95.20;;;;;;5029163;28;20037;-67
2022/09/23 12:51:29;;;;;;;6.70;3.95;;;19.10;96.60;;;;;;5029595;28;20037;-67
2022/09/23 12:53:54;;;;;;;5.75;2.97;;;19.00;99.20;;;;;;5028317;28;20033;-66
2022/09/23 12:56:27;;;;;;;5.43;3.53;;;18.80;99.40;;;;;;5029736;28;20387;-65
2022/09/23 12:58:57;;;;;;;7.55;3.72;;;18.60;98.80;;;;;;5028638;28;20037;-68
2022/09/23 13:01:24;;;;;;;7.95;3.67;;;19.30;98.90;;;;;;5029353;28;20025;-66
2022/09/23 13:07:04;;;;;;;6.53;3.78;;;20.10;96.50;;;;;;5025218;28;20033;-69
2022/09/23 13:09:38;;;;;;;7.60;3.63;;;20.00;96.60;;;;;;5024612;28;20104;-65
2022/09/23 13:12:12;;;;;;;7.65;3.85;;;19.40;96.70;;;;;;5028876;28;20029;-67
2022/09/23 13:14:43;;;;;;;7.50;3.50;;;19.40;97.40;;;;;;5026234;28;20471;-70
2022/09/23 13:17:22;;;;;;;6.82;3.92;;;19.30;97.00;;;;;;5029258;28;20029;-65
2022/09/23 13:20:15;;;;;;;6.38;3.60;;;18.90;96.50;;;;;;5032853;28;20045;-65
2022/09/23 13:23:19;;;;;;;11.20;3.97;;;18.80;98.30;;;;;;5028816;28;20060;-68
2022/09/23 13:25:45;;;;;;;6.18;4.00;;;18.70;97.60;;;;;;5027551;28;20577;-65